sensor_id;sensor_type;location;lat;lon;timestamp;pressure;altitude;pressure_sealevel;temperature;humidity
74334;BME280;62753;40.394;-80.022;2023-09-30T00:01:27;97728.39;;;26.65;34.19
74334;BME280;62753;40.394;-80.022;2023-09-30T00:03:53;97733.50;;;26.41;33.97
74334;BME280;62753;40.394;-80.022;2023-09-30T00:06:19;97736.68;;;27.26;33.66
74334;BME280;62753;40.394;-80.022;2023-09-30T00:08:43;97742.83;;;26.62;34.80
74334;BME280;62753;40.394;-80.022;2023-09-30T00:11:08;97745.45;;;26.86;34.01
74334;BME280;62753;40.394;-80.022;2023-09-30T00:13:34;97748.13;;;27.58;33.66
74334;BME280;62753;40.394;-80.022;2023-09-30T00:15:59;97755.93;;;26.50;34.30
74334;BME280;62753;40.394;-80.022;2023-09-30T00:18:24;97760.91;;;26.30;34.44
74334;BME280;62753;40.394;-80.022;2023-09-30T00:20:49;97761.83;;;27.05;33.85
74334;BME280;62753;40.394;-80.022;2023-09-30T00:23:15;97761.29;;;26.22;35.46
74334;BME280;62753;40.394;-80.022;2023-09-30T00:25:40;97767.26;;;26.33;34.87
74334;BME280;62753;40.394;-80.022;2023-09-30T00:28:06;97769.25;;;26.28;34.92
74334;BME280;62753;40.394;-80.022;2023-09-30T00:30:31;97765.70;;;26.18;35.16
74334;BME280;62753;40.394;-80.022;2023-09-30T00:32:57;97768.76;;;27.01;34.66
74334;BME280;62753;40.394;-80.022;2023-09-30T00:35:22;97771.21;;;26.46;35.27
74334;BME280;62753;40.394;-80.022;2023-09-30T00:37:47;97772.70;;;26.82;34.56
74334;BME280;62753;40.394;-80.022;2023-09-30T00:40:12;97767.65;;;26.20;35.12
74334;BME280;62753;40.394;-80.022;2023-09-30T00:42:37;97769.77;;;26.77;33.79
74334;BME280;62753;40.394;-80.022;2023-09-30T00:45:04;97771.89;;;27.77;32.79
74334;BME280;62753;40.394;-80.022;2023-09-30T00:47:28;97769.41;;;28.36;31.92
74334;BME280;62753;40.394;-80.022;2023-09-30T00:49:54;97774.67;;;27.84;32.68
74334;BME280;62753;40.394;-80.022;2023-09-30T00:52:20;97778.22;;;26.57;34.15
74334;BME280;62753;40.394;-80.022;2023-09-30T00:54:45;97778.51;;;26.26;35.17
74334;BME280;62753;40.394;-80.022;2023-09-30T00:57:10;97780.88;;;28.03;33.04
74334;BME280;62753;40.394;-80.022;2023-09-30T00:59:36;97784.56;;;26.54;34.61
74334;BME280;62753;40.394;-80.022;2023-09-30T01:02:02;97784.19;;;26.74;34.35
74334;BME280;62753;40.394;-80.022;2023-09-30T01:04:27;97785.85;;;26.93;34.02
74334;BME280;62753;40.394;-80.022;2023-09-30T01:06:52;97789.41;;;27.00;33.93
74334;BME280;62753;40.394;-80.022;2023-09-30T01:09:17;97789.63;;;25.58;36.33
74334;BME280;62753;40.394;-80.022;2023-09-30T01:11:43;97793.77;;;26.12;35.17
74334;BME280;62753;40.394;-80.022;2023-09-30T01:16:33;97799.92;;;26.84;34.76
74334;BME280;62753;40.394;-80.022;2023-09-30T01:18:59;97799.56;;;25.44;36.21
74334;BME280;62753;40.394;-80.022;2023-09-30T01:21:25;97798.96;;;26.24;35.40
74334;BME280;62753;40.394;-80.022;2023-09-30T01:23:49;97800.73;;;27.96;33.11
74334;BME280;62753;40.394;-80.022;2023-09-30T01:26:15;97802.15;;;27.71;33.48
74334;BME280;62753;40.394;-80.022;2023-09-30T01:28:41;97801.04;;;26.97;34.56
74334;BME280;62753;40.394;-80.022;2023-09-30T01:31:07;97804.31;;;27.39;33.62
74334;BME280;62753;40.394;-80.022;2023-09-30T01:33:32;97802.31;;;27.23;33.67
74334;BME280;62753;40.394;-80.022;2023-09-30T01:35:58;97802.02;;;27.68;33.18
74334;BME280;62753;40.394;-80.022;2023-09-30T01:38:23;97805.13;;;28.07;33.13
74334;BME280;62753;40.394;-80.022;2023-09-30T01:40:48;97807.31;;;27.29;33.78
74334;BME280;62753;40.394;-80.022;2023-09-30T01:43:13;97804.72;;;26.76;34.80
74334;BME280;62753;40.394;-80.022;2023-09-30T01:45:38;97806.70;;;26.81;35.17
74334;BME280;62753;40.394;-80.022;2023-09-30T01:48:04;97808.85;;;26.60;35.08
74334;BME280;62753;40.394;-80.022;2023-09-30T01:50:29;97810.87;;;26.56;35.44
74334;BME280;62753;40.394;-80.022;2023-09-30T01:52:55;97814.34;;;27.05;35.28
74334;BME280;62753;40.394;-80.022;2023-09-30T01:55:20;97815.71;;;26.23;36.59
74334;BME280;62753;40.394;-80.022;2023-09-30T01:57:45;97818.75;;;25.91;37.17
74334;BME280;62753;40.394;-80.022;2023-09-30T02:00:11;97818.48;;;25.80;37.67
74334;BME280;62753;40.394;-80.022;2023-09-30T02:02:36;97818.89;;;25.40;38.32
74334;BME280;62753;40.394;-80.022;2023-09-30T02:05:02;97815.87;;;24.93;40.07
74334;BME280;62753;40.394;-80.022;2023-09-30T02:07:27;97817.32;;;24.49;40.92
74334;BME280;62753;40.394;-80.022;2023-09-30T02:09:52;97814.84;;;24.12;40.81
74334;BME280;62753;40.394;-80.022;2023-09-30T02:12:18;97812.82;;;24.60;40.46
74334;BME280;62753;40.394;-80.022;2023-09-30T02:14:44;97810.45;;;25.11;39.38
74334;BME280;62753;40.394;-80.022;2023-09-30T02:17:09;97810.79;;;24.45;39.92
74334;BME280;62753;40.394;-80.022;2023-09-30T02:19:35;97812.11;;;24.57;40.03
74334;BME280;62753;40.394;-80.022;2023-09-30T02:22:00;97813.84;;;24.49;39.68
74334;BME280;62753;40.394;-80.022;2023-09-30T02:24:25;97814.42;;;25.07;39.14
74334;BME280;62753;40.394;-80.022;2023-09-30T02:26:50;97814.51;;;24.56;39.75
74334;BME280;62753;40.394;-80.022;2023-09-30T02:29:16;97821.50;;;23.60;40.36
74334;BME280;62753;40.394;-80.022;2023-09-30T02:31:41;97824.43;;;23.34;41.95
74334;BME280;62753;40.394;-80.022;2023-09-30T02:34:07;97820.56;;;23.71;41.37
74334;BME280;62753;40.394;-80.022;2023-09-30T02:36:32;97818.66;;;23.33;41.76
74334;BME280;62753;40.394;-80.022;2023-09-30T02:38:57;97817.74;;;24.40;40.34
74334;BME280;62753;40.394;-80.022;2023-09-30T02:41:22;97809.94;;;24.55;39.87
74334;BME280;62753;40.394;-80.022;2023-09-30T02:43:48;97810.37;;;24.12;40.35
74334;BME280;62753;40.394;-80.022;2023-09-30T02:46:13;97808.57;;;23.52;41.28
74334;BME280;62753;40.394;-80.022;2023-09-30T02:48:39;97805.81;;;23.62;41.25
74334;BME280;62753;40.394;-80.022;2023-09-30T02:51:08;97803.61;;;24.05;40.84
74334;BME280;62753;40.394;-80.022;2023-09-30T02:53:30;97801.14;;;24.07;40.51
74334;BME280;62753;40.394;-80.022;2023-09-30T02:55:55;97796.52;;;24.28;39.94
74334;BME280;62753;40.394;-80.022;2023-09-30T02:58:20;97801.97;;;23.97;40.66
74334;BME280;62753;40.394;-80.022;2023-09-30T03:00:48;97805.66;;;24.13;40.59
74334;BME280;62753;40.394;-80.022;2023-09-30T03:03:11;97803.93;;;24.91;38.84
74334;BME280;62753;40.394;-80.022;2023-09-30T03:05:35;97810.43;;;25.12;38.35
74334;BME280;62753;40.394;-80.022;2023-09-30T03:08:01;97810.60;;;24.76;38.77
74334;BME280;62753;40.394;-80.022;2023-09-30T03:10:26;97813.27;;;24.02;39.81
74334;BME280;62753;40.394;-80.022;2023-09-30T03:12:51;97811.94;;;24.70;39.32
74334;BME280;62753;40.394;-80.022;2023-09-30T03:15:17;97816.13;;;24.22;40.13
74334;BME280;62753;40.394;-80.022;2023-09-30T03:17:42;97813.10;;;24.49;38.96
74334;BME280;62753;40.394;-80.022;2023-09-30T03:20:09;97811.78;;;24.26;39.35
74334;BME280;62753;40.394;-80.022;2023-09-30T03:22:33;97813.20;;;23.95;40.49
74334;BME280;62753;40.394;-80.022;2023-09-30T03:24:58;97814.15;;;24.00;40.13
74334;BME280;62753;40.394;-80.022;2023-09-30T03:27:23;97810.18;;;24.80;38.95
74334;BME280;62753;40.394;-80.022;2023-09-30T03:29:49;97813.34;;;23.81;40.16
74334;BME280;62753;40.394;-80.022;2023-09-30T03:32:14;97810.87;;;24.53;39.19
74334;BME280;62753;40.394;-80.022;2023-09-30T03:34:40;97815.48;;;24.00;40.06
74334;BME280;62753;40.394;-80.022;2023-09-30T03:37:05;97819.46;;;23.62;41.15
74334;BME280;62753;40.394;-80.022;2023-09-30T03:39:30;97821.28;;;23.29;41.47
74334;BME280;62753;40.394;-80.022;2023-09-30T03:41:55;97821.65;;;23.58;40.99
74334;BME280;62753;40.394;-80.022;2023-09-30T03:44:21;97821.19;;;23.75;40.31
74334;BME280;62753;40.394;-80.022;2023-09-30T03:46:46;97820.78;;;23.80;40.06
74334;BME280;62753;40.394;-80.022;2023-09-30T03:49:11;97820.14;;;24.41;39.26
74334;BME280;62753;40.394;-80.022;2023-09-30T03:51:37;97820.64;;;24.10;39.64
74334;BME280;62753;40.394;-80.022;2023-09-30T03:54:02;97825.50;;;24.22;39.57
74334;BME280;62753;40.394;-80.022;2023-09-30T03:56:28;97829.35;;;24.35;39.38
74334;BME280;62753;40.394;-80.022;2023-09-30T03:58:53;97824.13;;;24.46;38.46
74334;BME280;62753;40.394;-80.022;2023-09-30T04:01:18;97824.71;;;24.34;38.38
74334;BME280;62753;40.394;-80.022;2023-09-30T04:03:43;97823.31;;;24.60;37.97
74334;BME280;62753;40.394;-80.022;2023-09-30T04:06:08;97824.70;;;25.40;36.73
74334;BME280;62753;40.394;-80.022;2023-09-30T04:08:34;97822.70;;;25.50;36.58
74334;BME280;62753;40.394;-80.022;2023-09-30T04:11:00;97823.76;;;25.72;36.45
74334;BME280;62753;40.394;-80.022;2023-09-30T04:13:25;97820.05;;;25.59;36.55
74334;BME280;62753;40.394;-80.022;2023-09-30T04:15:50;97818.24;;;25.11;37.11
74334;BME280;62753;40.394;-80.022;2023-09-30T04:18:15;97818.20;;;25.04;37.17
74334;BME280;62753;40.394;-80.022;2023-09-30T04:20:40;97818.90;;;25.17;37.02
74334;BME280;62753;40.394;-80.022;2023-09-30T04:23:06;97816.24;;;25.54;36.44
74334;BME280;62753;40.394;-80.022;2023-09-30T04:25:32;97817.18;;;25.45;36.81
74334;BME280;62753;40.394;-80.022;2023-09-30T04:27:57;97814.56;;;25.04;37.21
74334;BME280;62753;40.394;-80.022;2023-09-30T04:30:22;97810.59;;;24.90;37.71
74334;BME280;62753;40.394;-80.022;2023-09-30T04:32:47;97807.09;;;24.89;37.72
74334;BME280;62753;40.394;-80.022;2023-09-30T04:35:12;97803.38;;;24.55;38.74
74334;BME280;62753;40.394;-80.022;2023-09-30T04:37:38;97799.16;;;24.35;39.06
74334;BME280;62753;40.394;-80.022;2023-09-30T04:40:04;97798.98;;;23.71;39.56
74334;BME280;62753;40.394;-80.022;2023-09-30T04:42:28;97794.27;;;24.45;39.13
74334;BME280;62753;40.394;-80.022;2023-09-30T04:44:54;97800.94;;;23.83;39.47
74334;BME280;62753;40.394;-80.022;2023-09-30T04:47:19;97795.43;;;24.14;39.16
74334;BME280;62753;40.394;-80.022;2023-09-30T04:49:44;97797.60;;;23.59;39.69
74334;BME280;62753;40.394;-80.022;2023-09-30T04:52:09;97794.27;;;24.15;39.92
74334;BME280;62753;40.394;-80.022;2023-09-30T04:54:39;97792.67;;;23.93;39.52
74334;BME280;62753;40.394;-80.022;2023-09-30T04:56:59;97787.15;;;24.33;38.87
74334;BME280;62753;40.394;-80.022;2023-09-30T04:59:25;97787.18;;;24.18;39.32
74334;BME280;62753;40.394;-80.022;2023-09-30T05:01:51;97787.05;;;24.35;39.01
74334;BME280;62753;40.394;-80.022;2023-09-30T05:04:16;97793.94;;;23.75;39.68
74334;BME280;62753;40.394;-80.022;2023-09-30T05:06:42;97790.41;;;24.35;38.95
74334;BME280;62753;40.394;-80.022;2023-09-30T05:09:07;97792.79;;;24.43;38.55
74334;BME280;62753;40.394;-80.022;2023-09-30T05:11:32;97792.09;;;24.67;37.90
74334;BME280;62753;40.394;-80.022;2023-09-30T05:13:57;97790.74;;;24.77;37.97
74334;BME280;62753;40.394;-80.022;2023-09-30T05:16:29;97793.13;;;24.54;37.64
74334;BME280;62753;40.394;-80.022;2023-09-30T05:18:48;97793.88;;;24.12;38.45
74334;BME280;62753;40.394;-80.022;2023-09-30T05:21:14;97793.55;;;22.89;40.49
74334;BME280;62753;40.394;-80.022;2023-09-30T05:23:40;97794.22;;;22.94;41.01
74334;BME280;62753;40.394;-80.022;2023-09-30T05:26:05;97797.12;;;22.70;40.97
74334;BME280;62753;40.394;-80.022;2023-09-30T05:28:31;97795.15;;;23.98;39.23
74334;BME280;62753;40.394;-80.022;2023-09-30T05:30:56;97803.26;;;22.32;40.94
74334;BME280;62753;40.394;-80.022;2023-09-30T05:33:22;97805.96;;;22.63;40.83
74334;BME280;62753;40.394;-80.022;2023-09-30T05:35:48;97807.70;;;23.42;39.77
74334;BME280;62753;40.394;-80.022;2023-09-30T05:38:13;97814.79;;;22.61;40.48
74334;BME280;62753;40.394;-80.022;2023-09-30T05:40:39;97814.08;;;23.42;39.21
74334;BME280;62753;40.394;-80.022;2023-09-30T05:43:04;97812.98;;;20.81;43.63
74334;BME280;62753;40.394;-80.022;2023-09-30T05:45:31;97815.89;;;22.54;40.34
74334;BME280;62753;40.394;-80.022;2023-09-30T05:47:55;97816.06;;;23.12;39.91
74334;BME280;62753;40.394;-80.022;2023-09-30T05:50:21;97818.54;;;22.14;41.75
74334;BME280;62753;40.394;-80.022;2023-09-30T05:52:45;97820.21;;;21.83;42.21
74334;BME280;62753;40.394;-80.022;2023-09-30T05:55:11;97820.32;;;21.71;42.21
74334;BME280;62753;40.394;-80.022;2023-09-30T05:57:37;97821.23;;;21.69;42.53
74334;BME280;62753;40.394;-80.022;2023-09-30T06:00:01;97823.29;;;23.05;40.56
74334;BME280;62753;40.394;-80.022;2023-09-30T06:02:27;97821.14;;;23.44;40.07
74334;BME280;62753;40.394;-80.022;2023-09-30T06:04:52;97816.00;;;23.06;39.91
74334;BME280;62753;40.394;-80.022;2023-09-30T06:07:18;97819.06;;;23.28;40.77
74334;BME280;62753;40.394;-80.022;2023-09-30T06:09:43;97811.83;;;24.32;38.48
74334;BME280;62753;40.394;-80.022;2023-09-30T06:12:08;97813.44;;;23.68;39.52
74334;BME280;62753;40.394;-80.022;2023-09-30T06:14:33;97809.58;;;23.94;39.43
74334;BME280;62753;40.394;-80.022;2023-09-30T06:16:59;97804.75;;;23.84;39.47
74334;BME280;62753;40.394;-80.022;2023-09-30T06:19:24;97803.09;;;22.28;41.53
74334;BME280;62753;40.394;-80.022;2023-09-30T06:21:49;97799.24;;;22.13;41.20
74334;BME280;62753;40.394;-80.022;2023-09-30T06:24:14;97794.41;;;21.15;42.85
74334;BME280;62753;40.394;-80.022;2023-09-30T06:26:40;97791.49;;;22.05;42.21
74334;BME280;62753;40.394;-80.022;2023-09-30T06:29:05;97784.47;;;23.15;40.42
74334;BME280;62753;40.394;-80.022;2023-09-30T06:31:30;97779.58;;;23.28;40.18
74334;BME280;62753;40.394;-80.022;2023-09-30T06:33:56;97776.45;;;22.99;39.71
74334;BME280;62753;40.394;-80.022;2023-09-30T06:36:21;97776.83;;;22.16;41.47
74334;BME280;62753;40.394;-80.022;2023-09-30T06:38:46;97769.80;;;21.61;42.87
74334;BME280;62753;40.394;-80.022;2023-09-30T06:41:16;97766.72;;;23.18;39.90
74334;BME280;62753;40.394;-80.022;2023-09-30T06:43:37;97764.86;;;23.32;39.49
74334;BME280;62753;40.394;-80.022;2023-09-30T06:46:06;97765.31;;;24.08;38.64
74334;BME280;62753;40.394;-80.022;2023-09-30T06:48:28;97763.95;;;24.23;38.47
74334;BME280;62753;40.394;-80.022;2023-09-30T06:50:53;97764.20;;;24.06;38.10
74334;BME280;62753;40.394;-80.022;2023-09-30T06:53:19;97764.27;;;24.46;38.00
74334;BME280;62753;40.394;-80.022;2023-09-30T06:55:44;97761.87;;;24.46;37.89
74334;BME280;62753;40.394;-80.022;2023-09-30T06:58:10;97761.41;;;24.18;38.52
74334;BME280;62753;40.394;-80.022;2023-09-30T07:00:34;97758.64;;;24.33;38.35
74334;BME280;62753;40.394;-80.022;2023-09-30T07:03:00;97759.88;;;24.27;38.63
74334;BME280;62753;40.394;-80.022;2023-09-30T07:05:25;97766.55;;;23.71;38.73
74334;BME280;62753;40.394;-80.022;2023-09-30T07:07:50;97775.82;;;23.64;39.70
74334;BME280;62753;40.394;-80.022;2023-09-30T07:10:16;97777.66;;;22.72;39.95
74334;BME280;62753;40.394;-80.022;2023-09-30T07:12:41;97784.69;;;21.91;41.75
74334;BME280;62753;40.394;-80.022;2023-09-30T07:15:07;97788.72;;;22.60;40.71
74334;BME280;62753;40.394;-80.022;2023-09-30T07:17:32;97785.46;;;21.35;42.18
74334;BME280;62753;40.394;-80.022;2023-09-30T07:19:56;97780.18;;;21.11;43.16
74334;BME280;62753;40.394;-80.022;2023-09-30T07:22:22;97781.41;;;21.83;42.37
74334;BME280;62753;40.394;-80.022;2023-09-30T07:24:47;97780.76;;;21.20;43.32
74334;BME280;62753;40.394;-80.022;2023-09-30T07:27:12;97787.08;;;20.01;44.93
74334;BME280;62753;40.394;-80.022;2023-09-30T07:29:38;97789.70;;;22.99;40.78
74334;BME280;62753;40.394;-80.022;2023-09-30T07:32:03;97791.08;;;20.81;44.50
74334;BME280;62753;40.394;-80.022;2023-09-30T07:34:29;97790.03;;;22.09;42.22
74334;BME280;62753;40.394;-80.022;2023-09-30T07:36:54;97793.29;;;22.63;41.20
74334;BME280;62753;40.394;-80.022;2023-09-30T07:39:20;97791.20;;;21.08;43.64
74334;BME280;62753;40.394;-80.022;2023-09-30T07:41:45;97792.84;;;21.72;42.64
74334;BME280;62753;40.394;-80.022;2023-09-30T07:44:10;97796.96;;;22.27;41.92
74334;BME280;62753;40.394;-80.022;2023-09-30T07:46:35;97801.04;;;22.16;41.57
74334;BME280;62753;40.394;-80.022;2023-09-30T07:49:01;97804.31;;;22.28;40.88
74334;BME280;62753;40.394;-80.022;2023-09-30T07:51:26;97807.47;;;21.06;43.84
74334;BME280;62753;40.394;-80.022;2023-09-30T07:53:52;97807.37;;;21.84;42.73
74334;BME280;62753;40.394;-80.022;2023-09-30T07:56:17;97810.92;;;22.06;42.27
74334;BME280;62753;40.394;-80.022;2023-09-30T07:58:42;97812.78;;;23.68;39.84
74334;BME280;62753;40.394;-80.022;2023-09-30T08:01:08;97815.83;;;22.99;40.38
74334;BME280;62753;40.394;-80.022;2023-09-30T08:03:33;97815.69;;;23.23;39.75
74334;BME280;62753;40.394;-80.022;2023-09-30T08:05:59;97817.85;;;22.37;41.33
74334;BME280;62753;40.394;-80.022;2023-09-30T08:08:24;97822.57;;;20.68;44.50
74334;BME280;62753;40.394;-80.022;2023-09-30T08:10:50;97825.87;;;22.09;42.19
74334;BME280;62753;40.394;-80.022;2023-09-30T08:13:15;97831.16;;;22.64;40.92
74334;BME280;62753;40.394;-80.022;2023-09-30T08:15:41;97839.95;;;23.22;40.34
74334;BME280;62753;40.394;-80.022;2023-09-30T08:18:06;97842.86;;;22.80;40.45
74334;BME280;62753;40.394;-80.022;2023-09-30T08:20:32;97840.81;;;22.44;40.86
74334;BME280;62753;40.394;-80.022;2023-09-30T08:22:57;97847.34;;;23.06;39.99
74334;BME280;62753;40.394;-80.022;2023-09-30T08:25:23;97847.18;;;22.02;41.55
74334;BME280;62753;40.394;-80.022;2023-09-30T08:27:49;97849.79;;;22.06;42.02
74334;BME280;62753;40.394;-80.022;2023-09-30T08:30:14;97852.04;;;21.88;42.03
74334;BME280;62753;40.394;-80.022;2023-09-30T08:32:40;97858.25;;;21.61;42.63
74334;BME280;62753;40.394;-80.022;2023-09-30T08:35:06;97858.09;;;21.50;42.23
74334;BME280;62753;40.394;-80.022;2023-09-30T08:37:31;97861.92;;;21.85;42.82
74334;BME280;62753;40.394;-80.022;2023-09-30T08:39:57;97867.37;;;20.70;44.13
74334;BME280;62753;40.394;-80.022;2023-09-30T08:42:23;97861.96;;;21.96;42.49
74334;BME280;62753;40.394;-80.022;2023-09-30T08:44:48;97869.30;;;20.81;43.71
74334;BME280;62753;40.394;-80.022;2023-09-30T08:47:12;97869.02;;;21.65;42.86
74334;BME280;62753;40.394;-80.022;2023-09-30T08:49:38;97870.16;;;22.15;41.83
74334;BME280;62753;40.394;-80.022;2023-09-30T08:52:04;97872.78;;;21.35;42.91
74334;BME280;62753;40.394;-80.022;2023-09-30T08:54:28;97875.84;;;22.27;41.63
74334;BME280;62753;40.394;-80.022;2023-09-30T08:56:54;97874.85;;;21.93;41.98
74334;BME280;62753;40.394;-80.022;2023-09-30T08:59:19;97878.33;;;21.37;43.10
74334;BME280;62753;40.394;-80.022;2023-09-30T09:01:44;97879.39;;;20.68;44.27
74334;BME280;62753;40.394;-80.022;2023-09-30T09:04:10;97877.14;;;21.90;42.29
74334;BME280;62753;40.394;-80.022;2023-09-30T09:06:35;97877.28;;;20.36;46.02
74334;BME280;62753;40.394;-80.022;2023-09-30T09:11:25;97875.51;;;21.76;44.05
74334;BME280;62753;40.394;-80.022;2023-09-30T09:13:52;97875.47;;;21.08;44.94
74334;BME280;62753;40.394;-80.022;2023-09-30T09:16:16;97877.97;;;20.55;44.91
74334;BME280;62753;40.394;-80.022;2023-09-30T09:18:41;97877.36;;;22.01;41.73
74334;BME280;62753;40.394;-80.022;2023-09-30T09:21:09;97880.02;;;21.46;42.62
74334;BME280;62753;40.394;-80.022;2023-09-30T09:23:39;97879.42;;;21.83;42.37
74334;BME280;62753;40.394;-80.022;2023-09-30T09:25:57;97882.60;;;21.49;43.10
74334;BME280;62753;40.394;-80.022;2023-09-30T09:28:33;97882.35;;;22.25;41.40
74334;BME280;62753;40.394;-80.022;2023-09-30T09:30:48;97881.20;;;22.22;41.12
74334;BME280;62753;40.394;-80.022;2023-09-30T09:33:14;97884.41;;;21.21;43.26
74334;BME280;62753;40.394;-80.022;2023-09-30T09:35:39;97878.57;;;23.06;40.32
74334;BME280;62753;40.394;-80.022;2023-09-30T09:38:05;97884.58;;;22.55;40.73
74334;BME280;62753;40.394;-80.022;2023-09-30T09:40:31;97887.37;;;22.28;41.18
74334;BME280;62753;40.394;-80.022;2023-09-30T09:42:56;97889.29;;;21.59;41.46
74334;BME280;62753;40.394;-80.022;2023-09-30T09:45:23;97895.38;;;21.25;42.58
74334;BME280;62753;40.394;-80.022;2023-09-30T09:47:47;97890.99;;;21.52;42.26
74334;BME280;62753;40.394;-80.022;2023-09-30T09:50:13;97895.04;;;21.20;42.45
74334;BME280;62753;40.394;-80.022;2023-09-30T09:52:38;97899.02;;;20.82;43.25
74334;BME280;62753;40.394;-80.022;2023-09-30T09:55:04;97901.12;;;21.53;42.31
74334;BME280;62753;40.394;-80.022;2023-09-30T09:57:31;97902.00;;;21.92;41.52
74334;BME280;62753;40.394;-80.022;2023-09-30T09:59:54;97905.75;;;22.67;40.49
74334;BME280;62753;40.394;-80.022;2023-09-30T10:02:19;97901.91;;;22.19;40.65
74334;BME280;62753;40.394;-80.022;2023-09-30T10:04:45;97906.52;;;22.27;41.02
74334;BME280;62753;40.394;-80.022;2023-09-30T10:07:12;97908.36;;;23.25;39.54
74334;BME280;62753;40.394;-80.022;2023-09-30T10:09:35;97914.70;;;21.90;41.21
74334;BME280;62753;40.394;-80.022;2023-09-30T10:12:01;97920.03;;;22.65;40.29
74334;BME280;62753;40.394;-80.022;2023-09-30T10:14:31;97923.74;;;21.12;42.58
74334;BME280;62753;40.394;-80.022;2023-09-30T10:16:51;97926.87;;;21.14;42.33
74334;BME280;62753;40.394;-80.022;2023-09-30T10:19:17;97928.23;;;21.91;41.26
74334;BME280;62753;40.394;-80.022;2023-09-30T10:26:32;97922.42;;;21.59;41.87
74334;BME280;62753;40.394;-80.022;2023-09-30T10:29:08;97923.26;;;21.65;41.63
74334;BME280;62753;40.394;-80.022;2023-09-30T10:31:23;97926.68;;;21.20;42.72
74334;BME280;62753;40.394;-80.022;2023-09-30T10:36:14;97936.92;;;21.37;42.47
74334;BME280;62753;40.394;-80.022;2023-09-30T10:38:40;97939.63;;;21.24;42.21
74334;BME280;62753;40.394;-80.022;2023-09-30T10:41:05;97940.79;;;21.35;41.97
74334;BME280;62753;40.394;-80.022;2023-09-30T10:43:31;97942.83;;;21.40;42.07
74334;BME280;62753;40.394;-80.022;2023-09-30T10:45:55;97948.24;;;20.28;44.53
74334;BME280;62753;40.394;-80.022;2023-09-30T10:48:35;97941.67;;;21.81;41.54
74334;BME280;62753;40.394;-80.022;2023-09-30T10:50:50;97942.18;;;22.23;40.73
74334;BME280;62753;40.394;-80.022;2023-09-30T10:53:12;97954.12;;;21.69;41.42
74334;BME280;62753;40.394;-80.022;2023-09-30T10:55:38;97957.77;;;20.97;42.43
74334;BME280;62753;40.394;-80.022;2023-09-30T10:58:03;97959.61;;;21.50;41.57
74334;BME280;62753;40.394;-80.022;2023-09-30T11:00:28;97962.71;;;20.08;44.47
74334;BME280;62753;40.394;-80.022;2023-09-30T11:02:53;97964.66;;;19.56;44.80
74334;BME280;62753;40.394;-80.022;2023-09-30T11:05:19;97969.58;;;20.59;42.62
74334;BME280;62753;40.394;-80.022;2023-09-30T11:07:46;97974.84;;;20.06;43.66
74334;BME280;62753;40.394;-80.022;2023-09-30T11:10:10;97979.33;;;20.10;43.90
74334;BME280;62753;40.394;-80.022;2023-09-30T11:12:35;97975.73;;;20.68;43.38
74334;BME280;62753;40.394;-80.022;2023-09-30T11:15:02;97982.90;;;21.87;40.99
74334;BME280;62753;40.394;-80.022;2023-09-30T11:17:26;97986.41;;;20.64;42.61
74334;BME280;62753;40.394;-80.022;2023-09-30T11:19:51;97987.78;;;21.84;41.41
74334;BME280;62753;40.394;-80.022;2023-09-30T11:22:17;97990.69;;;20.82;42.50
74334;BME280;62753;40.394;-80.022;2023-09-30T11:24:43;97993.75;;;20.66;42.45
74334;BME280;62753;40.394;-80.022;2023-09-30T11:27:08;97998.21;;;21.42;42.30
74334;BME280;62753;40.394;-80.022;2023-09-30T11:29:33;98002.65;;;21.28;42.00
74334;BME280;62753;40.394;-80.022;2023-09-30T11:31:59;98008.70;;;20.99;42.29
74334;BME280;62753;40.394;-80.022;2023-09-30T11:34:31;98013.62;;;20.96;42.84
74334;BME280;62753;40.394;-80.022;2023-09-30T11:36:51;98019.56;;;21.38;42.00
74334;BME280;62753;40.394;-80.022;2023-09-30T11:39:21;98023.43;;;22.73;39.35
74334;BME280;62753;40.394;-80.022;2023-09-30T11:41:41;98030.78;;;22.37;40.70
74334;BME280;62753;40.394;-80.022;2023-09-30T11:44:07;98040.62;;;22.37;40.33
74334;BME280;62753;40.394;-80.022;2023-09-30T11:46:32;98041.54;;;22.90;39.64
74334;BME280;62753;40.394;-80.022;2023-09-30T11:48:59;98051.04;;;21.12;42.80
74334;BME280;62753;40.394;-80.022;2023-09-30T11:51:23;98054.14;;;21.87;41.58
74334;BME280;62753;40.394;-80.022;2023-09-30T11:53:49;98059.27;;;21.72;41.44
74334;BME280;62753;40.394;-80.022;2023-09-30T11:56:13;98064.23;;;21.30;42.13
74334;BME280;62753;40.394;-80.022;2023-09-30T11:58:38;98073.78;;;20.92;43.32
74334;BME280;62753;40.394;-80.022;2023-09-30T12:01:04;98076.05;;;20.65;43.67
74334;BME280;62753;40.394;-80.022;2023-09-30T12:03:30;98077.11;;;21.58;42.55
74334;BME280;62753;40.394;-80.022;2023-09-30T12:05:55;98082.22;;;20.81;43.21
74334;BME280;62753;40.394;-80.022;2023-09-30T12:08:21;98086.83;;;21.14;42.50
74334;BME280;62753;40.394;-80.022;2023-09-30T12:10:46;98084.04;;;20.99;43.07
74334;BME280;62753;40.394;-80.022;2023-09-30T12:13:12;98081.33;;;21.77;42.64
74334;BME280;62753;40.394;-80.022;2023-09-30T12:15:37;98085.43;;;21.35;42.82
74334;BME280;62753;40.394;-80.022;2023-09-30T12:18:03;98079.82;;;21.80;42.01
74334;BME280;62753;40.394;-80.022;2023-09-30T12:20:27;98079.96;;;20.98;42.90
74334;BME280;62753;40.394;-80.022;2023-09-30T12:22:53;98081.49;;;20.48;44.54
74334;BME280;62753;40.394;-80.022;2023-09-30T12:25:18;98078.78;;;21.35;42.56
74334;BME280;62753;40.394;-80.022;2023-09-30T12:27:43;98083.73;;;20.58;43.80
74334;BME280;62753;40.394;-80.022;2023-09-30T12:30:10;98081.12;;;21.02;42.92
74334;BME280;62753;40.394;-80.022;2023-09-30T12:32:34;98075.19;;;21.68;41.81
74334;BME280;62753;40.394;-80.022;2023-09-30T12:35:00;98079.50;;;22.57;40.46
74334;BME280;62753;40.394;-80.022;2023-09-30T12:37:25;98080.34;;;22.48;40.64
74334;BME280;62753;40.394;-80.022;2023-09-30T12:39:52;98084.13;;;22.01;40.99
74334;BME280;62753;40.394;-80.022;2023-09-30T12:42:17;98092.96;;;20.95;43.28